Big Creek, California
Current Conditions -  °F | °C
As of 2:55 PM on Saturday 20 Dec 2014 (Local Time) from KMMH Reporting Station
Overcast Overcast  
Wind Chill: 35°   Ceiling: 9000
Heat Index: 43°   Visibility: 10mi
Dew Point: 32°   Wind: 15mph
Humidity: 66%   Direction: 330°NNW
Pressure: 30.13"   Gusts: 18mph
Location:  37.2°N, 119.24°W
Report Text: KMMH 202255Z AUTO 33013G16KT 10SM SCT055 SCT070 OVC090 06/00 A3013 RMK AO1
Loading
Personal Weather Stations






























Interactive Weather Map New forecast layout! Learn more

10-Day Weather Forecast

Advertisements
Track Severe Weather on mobile